createdAt,value
2019-05-18T00:00:04.982Z,8.30
2019-05-18T00:01:07.453Z,8.30
2019-05-18T00:02:05.290Z,8.20
2019-05-18T00:03:05.387Z,8.20
2019-05-18T00:04:05.508Z,8.20
2019-05-18T00:05:04.640Z,8.10
2019-05-18T00:06:10.628Z,8.10
2019-05-18T00:07:05.566Z,8.10
2019-05-18T00:08:04.571Z,8.10
2019-05-18T00:09:08.173Z,8.00
2019-05-18T00:10:07.705Z,7.90
2019-05-18T00:11:05.516Z,7.90
2019-05-18T00:12:08.013Z,7.90
2019-05-18T00:13:07.321Z,7.90
2019-05-18T00:14:07.643Z,7.90
2019-05-18T00:15:08.078Z,7.90
2019-05-18T00:16:05.040Z,7.90
2019-05-18T00:17:07.796Z,7.80
2019-05-18T00:18:04.855Z,7.80
2019-05-18T00:19:04.830Z,7.80
2019-05-18T00:20:07.361Z,7.80
2019-05-18T00:21:05.170Z,7.80
2019-05-18T00:22:05.184Z,7.90
2019-05-18T00:23:07.865Z,7.80
2019-05-18T00:24:04.864Z,7.80
2019-05-18T00:25:04.912Z,7.80
2019-05-18T00:26:07.399Z,7.80
2019-05-18T00:27:05.252Z,7.80
2019-05-18T00:28:05.240Z,7.70
2019-05-18T00:29:05.287Z,7.80
2019-05-18T00:30:07.782Z,7.80
2019-05-18T00:31:07.156Z,7.80
2019-05-18T00:32:05.011Z,7.70
2019-05-18T00:33:07.539Z,7.70
2019-05-18T00:34:07.958Z,7.70
2019-05-18T00:35:04.716Z,7.70
2019-05-18T00:36:07.182Z,7.70
2019-05-18T00:37:04.958Z,7.70
2019-05-18T00:38:07.506Z,7.70
2019-05-18T00:39:10.524Z,7.70
2019-05-18T00:40:07.992Z,7.70
2019-05-18T00:41:04.969Z,7.70
2019-05-18T00:42:05.063Z,7.70
2019-05-18T00:43:05.111Z,7.70
2019-05-18T00:44:05.113Z,7.70
2019-05-18T00:45:10.672Z,7.60
2019-05-18T00:46:08.062Z,7.70
2019-05-18T00:47:04.840Z,7.60
2019-05-18T00:48:04.834Z,7.70
2019-05-18T00:49:04.719Z,7.60
2019-05-18T00:50:07.195Z,7.60
2019-05-18T00:51:04.988Z,7.60
2019-05-18T00:52:05.039Z,7.60
2019-05-18T00:53:05.042Z,7.50
2019-05-18T00:54:05.014Z,7.50
2019-05-18T00:55:05.061Z,7.50
2019-05-18T00:56:04.995Z,7.50
2019-05-18T00:57:05.326Z,7.50
2019-05-18T00:58:07.855Z,7.50
2019-05-18T00:59:04.814Z,7.50
2019-05-18T01:00:04.744Z,7.50
2019-05-18T01:01:04.766Z,7.50
2019-05-18T01:02:07.386Z,7.50
2019-05-18T01:03:05.313Z,7.50
2019-05-18T01:04:05.371Z,7.50
2019-05-18T01:05:07.148Z,7.50
2019-05-18T01:06:07.497Z,7.50
2019-05-18T01:07:05.272Z,7.50
2019-05-18T01:08:07.793Z,7.50
2019-05-18T01:09:04.617Z,7.50
2019-05-18T01:10:07.161Z,7.40
2019-05-18T01:11:07.496Z,7.40
2019-05-18T01:12:05.344Z,7.40
2019-05-18T01:13:05.262Z,7.50
2019-05-18T01:14:05.181Z,7.40
2019-05-18T01:15:07.800Z,7.40
2019-05-18T01:16:04.669Z,7.40
2019-05-18T01:17:07.259Z,7.40
2019-05-18T01:18:05.093Z,7.40
2019-05-18T01:19:07.670Z,7.30
2019-05-18T01:20:08.153Z,7.30
2019-05-18T01:21:05.019Z,7.30
2019-05-18T01:22:07.660Z,7.30
2019-05-18T01:23:05.542Z,7.30
2019-05-18T01:24:07.993Z,7.30
2019-05-18T01:25:04.942Z,7.30
2019-05-18T01:26:07.648Z,7.20
2019-05-18T01:27:05.467Z,7.30
2019-05-18T01:28:05.557Z,7.20
2019-05-18T01:29:08.087Z,7.20
2019-05-18T01:30:07.507Z,7.20
2019-05-18T01:31:05.340Z,7.20
2019-05-18T01:32:05.318Z,7.20
2019-05-18T01:33:05.372Z,7.20
2019-05-18T01:34:08.058Z,7.20
2019-05-18T01:35:04.919Z,7.20
2019-05-18T01:36:04.984Z,7.20
2019-05-18T01:37:05.020Z,7.20
2019-05-18T01:38:05.104Z,7.20
2019-05-18T01:39:05.170Z,7.20
2019-05-18T01:40:07.722Z,7.20
2019-05-18T01:41:08.070Z,7.20
2019-05-18T01:42:04.880Z,7.20
2019-05-18T01:43:04.838Z,7.20
2019-05-18T01:44:04.879Z,7.20
2019-05-18T01:45:16.121Z,7.20
2019-05-18T01:46:05.424Z,7.20
2019-05-18T01:47:05.361Z,7.10
2019-05-18T01:48:13.038Z,7.10
2019-05-18T01:49:05.439Z,7.10
2019-05-18T01:50:07.959Z,7.10
2019-05-18T01:51:04.737Z,7.00
2019-05-18T01:52:04.789Z,7.00
2019-05-18T01:53:04.794Z,7.00
2019-05-18T01:54:04.791Z,7.00
2019-05-18T01:55:04.711Z,7.00
2019-05-18T01:56:04.697Z,7.00
2019-05-18T01:58:05.543Z,7.00
2019-05-18T01:58:09.336Z,7.00
2019-05-18T01:59:05.405Z,7.00
2019-05-18T02:00:05.424Z,7.00
2019-05-18T02:01:05.671Z,7.00
2019-05-18T02:02:04.670Z,7.00
2019-05-18T02:03:07.144Z,6.90
2019-05-18T02:04:04.990Z,6.90
2019-05-18T02:05:04.962Z,6.90
2019-05-18T02:06:04.902Z,7.00
2019-05-18T02:07:07.464Z,6.90
2019-05-18T02:08:05.305Z,6.90
2019-05-18T02:09:07.732Z,6.90
2019-05-18T02:10:05.514Z,6.90
2019-05-18T02:11:08.068Z,6.90
2019-05-18T02:12:09.933Z,6.90
2019-05-18T02:13:07.263Z,6.90
2019-05-18T02:14:05.069Z,6.90
2019-05-18T02:15:07.707Z,6.90
2019-05-18T02:16:04.730Z,6.90
2019-05-18T02:17:04.845Z,6.80
2019-05-18T02:18:26.804Z,6.80
2019-05-18T02:19:05.044Z,6.80
2019-05-18T02:20:05.287Z,6.80
2019-05-18T02:21:05.360Z,6.80
2019-05-18T02:22:05.350Z,6.80
2019-05-18T02:23:05.432Z,6.80
2019-05-18T02:24:05.512Z,6.80
2019-05-18T02:25:05.608Z,6.80
2019-05-18T02:26:04.654Z,6.80
2019-05-18T02:27:04.767Z,6.70
2019-05-18T02:28:07.290Z,6.70
2019-05-18T02:29:07.745Z,6.70
2019-05-18T02:30:04.616Z,6.70
2019-05-18T02:31:07.166Z,6.70
2019-05-18T02:32:04.960Z,6.70
2019-05-18T02:33:05.016Z,6.70
2019-05-18T02:34:05.477Z,6.70
2019-05-18T02:35:05.462Z,6.70
2019-05-18T02:36:08.046Z,6.70
2019-05-18T02:37:04.870Z,6.70
2019-05-18T02:38:04.895Z,6.70
2019-05-18T02:39:04.915Z,6.70
2019-05-18T02:40:07.507Z,6.70
2019-05-18T02:41:05.399Z,6.60
2019-05-18T02:42:05.369Z,6.60
2019-05-18T02:43:05.322Z,6.70
2019-05-18T02:44:05.251Z,6.60
2019-05-18T02:45:05.509Z,6.60
2019-05-18T02:46:05.643Z,6.60
2019-05-18T02:47:07.321Z,6.60
2019-05-18T02:48:05.169Z,6.60
2019-05-18T02:49:05.196Z,6.60
2019-05-18T02:50:05.196Z,6.60
2019-05-18T02:51:05.184Z,6.60
2019-05-18T02:52:05.161Z,6.60
2019-05-18T02:53:07.642Z,6.60
2019-05-18T02:54:05.470Z,6.50
2019-05-18T02:55:05.385Z,6.50
2019-05-18T02:56:05.443Z,6.50
2019-05-18T02:57:05.469Z,6.50
2019-05-18T02:58:05.544Z,6.50
2019-05-18T02:59:08.241Z,6.50
2019-05-18T03:00:05.110Z,6.50
2019-05-18T03:01:07.730Z,6.50
2019-05-18T03:02:04.648Z,6.50
2019-05-18T03:03:04.711Z,6.50
2019-05-18T03:04:07.417Z,6.50
2019-05-18T03:05:05.299Z,6.40
2019-05-18T03:06:05.270Z,6.50
2019-05-18T03:07:05.306Z,6.50
2019-05-18T03:08:05.409Z,6.40
2019-05-18T03:09:05.361Z,6.50
2019-05-18T03:10:05.526Z,6.40
2019-05-18T03:11:05.573Z,6.40
2019-05-18T03:12:04.711Z,6.50
2019-05-18T03:13:04.842Z,6.40
2019-05-18T03:14:04.853Z,6.40
2019-05-18T03:15:05.313Z,6.40
2019-05-18T03:16:05.453Z,6.40
2019-05-18T03:17:08.172Z,6.40
2019-05-18T03:18:07.674Z,6.30
2019-05-18T03:19:08.534Z,6.40
2019-05-18T03:20:05.362Z,6.30
2019-05-18T03:21:07.938Z,6.40
2019-05-18T03:22:04.760Z,6.30
2019-05-18T03:23:07.333Z,6.30
2019-05-18T03:24:05.172Z,6.30
2019-05-18T03:25:05.161Z,6.30
2019-05-18T03:26:05.187Z,6.30
2019-05-18T03:27:07.771Z,6.30
2019-05-18T03:28:04.634Z,6.30
2019-05-18T03:29:04.608Z,6.30
2019-05-18T03:30:07.671Z,6.30
2019-05-18T03:31:04.720Z,6.20
2019-05-18T03:32:05.030Z,6.20
2019-05-18T03:33:07.267Z,6.20
2019-05-18T03:34:07.820Z,6.20
2019-05-18T03:35:04.698Z,6.20
2019-05-18T03:36:04.759Z,6.20
2019-05-18T03:37:04.820Z,6.10
2019-05-18T03:38:04.797Z,6.10
2019-05-18T03:39:04.733Z,6.20
2019-05-18T03:40:04.763Z,6.10
2019-05-18T03:41:04.976Z,6.10
2019-05-18T03:42:07.490Z,6.20
2019-05-18T03:43:07.872Z,6.20
2019-05-18T03:44:04.772Z,6.10
2019-05-18T03:45:04.979Z,6.10
2019-05-18T03:46:04.988Z,6.20
2019-05-18T03:47:04.944Z,6.20
2019-05-18T03:48:07.434Z,6.20
2019-05-18T03:49:23.560Z,6.10
2019-05-18T03:50:05.486Z,6.20
2019-05-18T03:51:08.028Z,6.10
2019-05-18T03:52:04.919Z,6.10
2019-05-18T03:53:07.379Z,6.10
2019-05-18T03:54:05.241Z,6.10
2019-05-18T03:55:05.351Z,6.10
2019-05-18T03:56:05.356Z,6.10
2019-05-18T03:57:13.059Z,6.20
2019-05-18T03:58:05.014Z,6.20
2019-05-18T03:59:07.569Z,6.40
2019-05-18T04:00:08.014Z,6.40
2019-05-18T04:01:04.998Z,6.40
2019-05-18T04:02:05.005Z,6.50
2019-05-18T04:03:05.121Z,6.60
2019-05-18T04:04:05.201Z,6.60
2019-05-18T04:05:05.392Z,6.70
2019-05-18T04:06:07.953Z,6.80
2019-05-18T04:07:07.304Z,6.90
2019-05-18T04:08:05.208Z,6.90
2019-05-18T04:09:07.762Z,7.10
2019-05-18T04:10:05.615Z,7.10
2019-05-18T04:11:08.090Z,7.40
2019-05-18T04:12:04.948Z,7.40
2019-05-18T04:13:05.306Z,7.60
2019-05-18T04:14:08.263Z,7.80
2019-05-18T04:15:04.772Z,7.90
2019-05-18T04:16:07.315Z,8.30
2019-05-18T04:17:05.199Z,8.30
2019-05-18T04:18:07.737Z,8.60
2019-05-18T04:19:04.594Z,8.60
2019-05-18T04:20:05.608Z,8.70
2019-05-18T04:21:10.706Z,9.10
2019-05-18T04:22:08.204Z,9.30
2019-05-18T04:23:05.053Z,9.30
2019-05-18T04:24:07.538Z,9.60
2019-05-18T04:25:05.840Z,9.60
2019-05-18T04:26:04.857Z,9.80
2019-05-18T04:27:04.859Z,9.90
2019-05-18T04:28:07.502Z,10.20
2019-05-18T04:29:07.868Z,10.40
2019-05-18T04:30:04.685Z,10.40
2019-05-18T04:31:07.317Z,10.70
2019-05-18T04:32:05.281Z,10.70
2019-05-18T04:33:07.952Z,11.00
2019-05-18T04:34:04.796Z,11.00
2019-05-18T04:35:07.328Z,11.30
2019-05-18T04:36:05.239Z,11.30
2019-05-18T04:37:05.286Z,11.50
2019-05-18T04:38:05.345Z,11.70
2019-05-18T04:39:05.334Z,11.80
2019-05-18T04:40:05.482Z,12.00
2019-05-18T04:41:08.073Z,12.20
2019-05-18T04:42:07.480Z,12.30
2019-05-18T04:43:07.906Z,12.40
2019-05-18T04:44:04.841Z,12.40
2019-05-18T04:45:05.220Z,12.60
2019-05-18T04:46:05.214Z,12.70
2019-05-18T04:47:05.149Z,12.80
2019-05-18T04:48:05.120Z,12.90
2019-05-18T04:49:05.135Z,13.00
2019-05-18T04:50:06.131Z,13.20
2019-05-18T04:51:05.394Z,13.20
2019-05-18T04:52:07.904Z,13.40
2019-05-18T04:53:04.741Z,13.40
2019-05-18T04:54:04.722Z,13.60
2019-05-18T04:55:07.233Z,13.70
2019-05-18T04:56:07.728Z,13.80
2019-05-18T04:57:04.583Z,13.80
2019-05-18T04:58:05.612Z,13.90
2019-05-18T04:59:04.645Z,13.90
2019-05-18T05:00:04.640Z,14.10
2019-05-18T05:01:04.695Z,14.10
2019-05-18T05:02:04.735Z,14.20
2019-05-18T05:03:09.836Z,14.40
2019-05-18T05:04:04.906Z,14.40
2019-05-18T05:05:07.455Z,14.60
2019-05-18T05:06:05.369Z,14.50
2019-05-18T05:07:05.407Z,14.70
2019-05-18T05:08:05.371Z,14.70
2019-05-18T05:09:05.339Z,14.80
2019-05-18T05:10:10.420Z,14.90
2019-05-18T05:11:05.405Z,15.00
2019-05-18T05:12:05.409Z,15.00
2019-05-18T05:13:05.435Z,15.10
2019-05-18T05:14:05.575Z,15.20
2019-05-18T05:15:07.296Z,15.30
2019-05-18T05:16:05.120Z,15.30
2019-05-18T05:17:04.717Z,15.40
2019-05-18T05:18:04.658Z,15.50
2019-05-18T05:19:08.738Z,15.70
2019-05-18T05:20:17.191Z,15.60
2019-05-18T05:21:07.508Z,15.80
2019-05-18T05:22:05.410Z,15.80
2019-05-18T05:23:05.391Z,15.80
2019-05-18T05:24:07.915Z,16.00
2019-05-18T05:25:04.731Z,16.00
2019-05-18T05:26:04.781Z,16.10
2019-05-18T05:27:07.337Z,16.20
2019-05-18T05:28:07.750Z,16.20
2019-05-18T05:29:04.594Z,16.20
2019-05-18T05:30:05.684Z,16.20
2019-05-18T05:31:04.748Z,16.30
2019-05-18T05:32:04.731Z,16.30
2019-05-18T05:33:07.200Z,16.40
2019-05-18T05:34:05.048Z,16.40
2019-05-18T05:35:05.025Z,16.40
2019-05-18T05:36:07.557Z,16.50
2019-05-18T05:37:05.408Z,16.50
2019-05-18T05:38:05.476Z,16.50
2019-05-18T05:39:05.483Z,16.60
2019-05-18T05:40:05.427Z,16.60
2019-05-18T05:41:16.457Z,16.70
2019-05-18T05:42:14.798Z,16.70
2019-05-18T05:43:04.723Z,16.70
2019-05-18T05:44:04.873Z,16.70
2019-05-18T05:45:07.641Z,16.70
2019-05-18T05:46:05.491Z,16.70
2019-05-18T05:47:05.579Z,16.80
2019-05-18T05:48:04.607Z,16.80
2019-05-18T05:49:05.558Z,16.80
2019-05-18T05:50:05.572Z,16.90
2019-05-18T05:51:04.596Z,16.80
2019-05-18T05:52:05.640Z,16.80
2019-05-18T05:53:04.784Z,16.90
2019-05-18T05:54:07.449Z,17.00
2019-05-18T05:55:05.267Z,16.90
2019-05-18T05:56:07.771Z,17.00
2019-05-18T05:57:07.149Z,17.00
2019-05-18T05:58:04.995Z,17.00
2019-05-18T05:59:07.637Z,17.10
2019-05-18T06:00:05.481Z,17.10
2019-05-18T06:01:07.949Z,17.20
2019-05-18T06:02:04.777Z,17.10
2019-05-18T06:03:07.326Z,17.20
2019-05-18T06:04:05.272Z,17.20
2019-05-18T06:05:05.451Z,17.20
2019-05-18T06:06:10.488Z,17.40
2019-05-18T06:07:05.366Z,17.40
2019-05-18T06:08:07.995Z,17.50
2019-05-18T06:09:07.361Z,17.50
2019-05-18T06:10:07.747Z,17.60
2019-05-18T06:11:08.259Z,17.70
2019-05-18T06:12:07.752Z,17.70
2019-05-18T06:13:05.528Z,17.70
2019-05-18T06:14:05.538Z,17.80
2019-05-18T06:15:08.066Z,17.70
2019-05-18T06:16:04.896Z,17.70
2019-05-18T06:17:07.835Z,17.70
2019-05-18T06:18:07.970Z,17.70
2019-05-18T06:19:07.370Z,17.70
2019-05-18T06:20:07.732Z,17.70
2019-05-18T06:21:05.575Z,17.70
2019-05-18T06:22:05.681Z,17.80
2019-05-18T06:23:07.387Z,17.80
2019-05-18T06:24:07.869Z,17.90
2019-05-18T06:25:09.920Z,17.90
2019-05-18T06:26:10.147Z,18.00
2019-05-18T06:27:07.553Z,18.00
2019-05-18T06:28:07.899Z,18.00
2019-05-18T06:29:07.241Z,18.10
2019-05-18T06:30:05.069Z,18.00
2019-05-18T06:31:05.038Z,18.10
2019-05-18T06:32:07.537Z,18.20
2019-05-18T06:33:05.315Z,18.30
2019-05-18T06:34:10.484Z,18.40
2019-05-18T06:35:05.399Z,18.40
2019-05-18T06:36:05.571Z,18.40
2019-05-18T06:37:05.715Z,18.50
2019-05-18T06:38:04.886Z,18.60
2019-05-18T06:39:10.020Z,18.70
2019-05-18T06:40:04.832Z,18.70
2019-05-18T06:41:07.362Z,18.90
2019-05-18T06:42:10.694Z,18.90
2019-05-18T06:43:07.359Z,19.00
2019-05-18T06:44:05.233Z,19.00
2019-05-18T06:45:04.727Z,19.00
2019-05-18T06:46:07.273Z,19.10
2019-05-18T06:47:05.213Z,19.10
2019-05-18T06:48:07.717Z,19.20
2019-05-18T06:49:08.078Z,19.30
2019-05-18T06:50:10.662Z,19.30
2019-05-18T06:51:06.995Z,19.30
2019-05-18T06:52:04.639Z,19.40
2019-05-18T06:53:04.573Z,19.40
2019-05-18T06:54:05.691Z,19.40
2019-05-18T06:55:04.803Z,19.50
2019-05-18T06:56:07.506Z,19.60
2019-05-18T06:57:05.425Z,19.60
2019-05-18T06:58:05.664Z,19.70
2019-05-18T06:59:04.937Z,19.70
2019-05-18T07:00:04.984Z,19.70
2019-05-18T07:01:07.508Z,19.70
2019-05-18T07:02:08.051Z,19.70
2019-05-18T07:03:04.925Z,19.70
2019-05-18T07:04:04.925Z,19.70
2019-05-18T07:05:07.425Z,19.80
2019-05-18T07:06:05.261Z,19.70
2019-05-18T07:07:05.231Z,19.80
2019-05-18T07:08:05.371Z,19.80
2019-05-18T07:09:13.512Z,19.80
2019-05-18T07:10:05.370Z,19.80
2019-05-18T07:11:05.358Z,19.90
2019-05-18T07:12:04.751Z,19.90
2019-05-18T07:13:04.724Z,19.90
2019-05-18T07:14:05.235Z,19.90
2019-05-18T07:15:05.363Z,19.90
2019-05-18T07:16:05.498Z,20.00
2019-05-18T07:17:05.554Z,20.00
2019-05-18T07:18:08.052Z,20.10
2019-05-18T07:19:04.870Z,20.10
2019-05-18T07:20:04.873Z,20.10
2019-05-18T07:21:05.000Z,20.20
2019-05-18T07:22:07.579Z,20.20
2019-05-18T07:23:08.077Z,20.30
2019-05-18T07:24:05.001Z,20.30
2019-05-18T07:25:07.592Z,20.40
2019-05-18T07:26:08.073Z,20.40
2019-05-18T07:27:04.913Z,20.40
2019-05-18T07:28:04.873Z,20.40
2019-05-18T07:29:05.717Z,20.40
2019-05-18T07:30:04.819Z,20.40
2019-05-18T07:31:04.824Z,20.50
2019-05-18T07:32:04.869Z,20.50
2019-05-18T07:33:07.551Z,20.50
2019-05-18T07:34:05.603Z,20.50
2019-05-18T07:35:04.706Z,20.60
2019-05-18T07:36:07.330Z,20.60
2019-05-18T07:37:05.241Z,20.60
2019-05-18T07:38:05.261Z,20.60
2019-05-18T07:39:07.834Z,20.70
2019-05-18T07:40:07.235Z,20.70
2019-05-18T07:41:05.114Z,20.70
2019-05-18T07:42:10.348Z,20.70
2019-05-18T07:43:05.279Z,20.80
2019-05-18T07:44:05.395Z,20.80
2019-05-18T07:45:04.623Z,20.70
2019-05-18T07:46:08.796Z,20.60
2019-05-18T07:47:04.761Z,20.70
2019-05-18T07:48:04.772Z,20.70
2019-05-18T07:49:04.769Z,20.60
2019-05-18T07:50:04.795Z,20.70
2019-05-18T07:51:04.973Z,20.70
2019-05-18T07:52:05.198Z,20.70
2019-05-18T07:53:07.799Z,20.80
2019-05-18T07:54:04.668Z,20.80
2019-05-18T07:55:04.774Z,20.80
2019-05-18T07:56:04.862Z,20.90
2019-05-18T07:57:07.494Z,21.00
2019-05-18T07:58:05.370Z,21.00
2019-05-18T07:59:05.373Z,21.00
2019-05-18T08:00:05.567Z,21.00
2019-05-18T08:01:04.667Z,21.00
2019-05-18T08:02:04.697Z,21.00
2019-05-18T08:03:04.857Z,21.00
2019-05-18T08:04:04.941Z,20.90
2019-05-18T08:05:04.960Z,20.90
2019-05-18T08:06:05.007Z,20.80
2019-05-18T08:07:07.559Z,20.70
2019-05-18T08:08:07.956Z,20.80
2019-05-18T08:09:04.925Z,20.70
2019-05-18T08:10:05.094Z,20.70
2019-05-18T08:11:05.212Z,20.70
2019-05-18T08:12:07.714Z,20.70
2019-05-18T08:13:08.031Z,20.60
2019-05-18T08:14:07.477Z,20.60
2019-05-18T08:15:05.328Z,20.50
2019-05-18T08:16:05.329Z,20.50
2019-05-18T08:17:07.907Z,20.50
2019-05-18T08:18:07.347Z,20.50
2019-05-18T08:19:05.218Z,20.50
2019-05-18T08:20:07.829Z,20.60
2019-05-18T08:21:04.739Z,20.50
2019-05-18T08:22:10.013Z,20.60
2019-05-18T08:23:07.546Z,20.60
2019-05-18T08:24:05.962Z,20.60
2019-05-18T08:25:05.566Z,20.60
2019-05-18T08:26:07.215Z,20.60
2019-05-18T08:27:05.110Z,20.60
2019-05-18T08:28:05.092Z,20.60
2019-05-18T08:29:05.140Z,20.50
2019-05-18T08:30:05.255Z,20.60
2019-05-18T08:31:07.815Z,20.50
2019-05-18T08:32:04.625Z,20.50
2019-05-18T08:33:04.751Z,20.50
2019-05-18T08:34:04.954Z,20.50
2019-05-18T08:35:10.096Z,20.40
2019-05-18T08:36:05.035Z,20.50
2019-05-18T08:37:04.984Z,20.40
2019-05-18T08:38:07.450Z,20.40
2019-05-18T08:39:07.991Z,20.40
2019-05-18T08:40:07.566Z,20.30
2019-05-18T08:41:05.559Z,20.30
2019-05-18T08:42:04.601Z,20.30
2019-05-18T08:43:04.598Z,20.20
2019-05-18T08:44:05.643Z,20.20
2019-05-18T08:45:05.034Z,20.30
2019-05-18T08:46:07.651Z,20.30
2019-05-18T08:47:08.062Z,20.30
2019-05-18T08:48:07.475Z,20.30
2019-05-18T08:49:05.400Z,20.30
2019-05-18T08:50:07.938Z,20.40
2019-05-18T08:51:04.916Z,20.40
2019-05-18T08:52:08.069Z,20.40
2019-05-18T08:53:07.113Z,20.50
2019-05-18T08:54:07.531Z,20.50
2019-05-18T08:55:05.406Z,20.50
2019-05-18T08:56:05.396Z,20.50
2019-05-18T08:57:08.239Z,20.60
2019-05-18T08:58:05.284Z,20.50
2019-05-18T08:59:05.251Z,20.60
2019-05-18T09:00:07.772Z,20.50
2019-05-18T09:01:04.663Z,20.50
2019-05-18T09:02:07.223Z,20.50
2019-05-18T09:03:07.688Z,20.50
2019-05-18T09:04:04.649Z,20.50
2019-05-18T09:05:05.114Z,20.50
2019-05-18T09:06:05.345Z,20.50
2019-05-18T09:07:05.455Z,20.50
2019-05-18T09:08:05.496Z,20.40
2019-05-18T09:09:05.632Z,20.50
2019-05-18T09:10:04.842Z,20.50
2019-05-18T09:11:04.979Z,20.40
2019-05-18T09:12:05.117Z,20.40
2019-05-18T09:13:05.220Z,20.40
2019-05-18T09:14:05.402Z,20.40
2019-05-18T09:15:05.480Z,20.40
2019-05-18T09:16:08.023Z,20.40
2019-05-18T09:17:09.983Z,20.40
2019-05-18T09:18:05.175Z,20.40
2019-05-18T09:19:05.316Z,20.40
2019-05-18T09:20:05.422Z,20.40
2019-05-18T09:21:08.168Z,20.50
2019-05-18T09:22:05.222Z,20.50
2019-05-18T09:23:05.350Z,20.50
2019-05-18T09:24:05.589Z,20.50
2019-05-18T09:25:04.695Z,20.50
2019-05-18T09:26:04.841Z,20.50
2019-05-18T09:27:04.852Z,20.50
2019-05-18T09:28:07.562Z,20.60
2019-05-18T09:29:08.004Z,20.60
2019-05-18T09:30:07.433Z,20.60
2019-05-18T09:31:07.392Z,20.60
2019-05-18T09:32:05.291Z,20.60
2019-05-18T09:33:05.207Z,20.60
2019-05-18T09:34:05.155Z,20.60
2019-05-18T09:35:07.675Z,20.70
2019-05-18T09:36:05.682Z,20.70
2019-05-18T09:37:07.456Z,20.70
2019-05-18T09:38:08.073Z,20.80
2019-05-18T09:39:05.051Z,20.70
2019-05-18T09:40:05.153Z,20.70
2019-05-18T09:41:05.121Z,20.80
2019-05-18T09:42:05.266Z,20.80
2019-05-18T09:43:05.343Z,20.80
2019-05-18T09:44:05.369Z,20.80
2019-05-18T09:45:07.313Z,20.80
2019-05-18T09:46:05.404Z,20.70
2019-05-18T09:47:05.521Z,20.70
2019-05-18T09:48:05.660Z,20.80
2019-05-18T09:49:04.930Z,20.80
2019-05-18T09:50:05.158Z,20.70
2019-05-18T09:51:05.298Z,20.80
2019-05-18T09:52:05.354Z,20.80
2019-05-18T09:53:10.602Z,20.80
2019-05-18T09:54:04.979Z,20.80
2019-05-18T09:55:07.795Z,20.70
2019-05-18T09:56:04.876Z,20.70
2019-05-18T09:57:07.664Z,20.70
2019-05-18T09:58:07.301Z,20.70
2019-05-18T09:59:07.813Z,20.70
2019-05-18T10:00:07.239Z,20.70
2019-05-18T10:01:07.673Z,20.70
2019-05-18T10:02:05.528Z,20.80
2019-05-18T10:03:08.138Z,20.80
2019-05-18T10:04:05.173Z,20.70
2019-05-18T10:05:04.886Z,20.80
2019-05-18T10:06:05.192Z,20.80
2019-05-18T10:07:05.446Z,20.80
2019-05-18T10:08:08.186Z,20.90
2019-05-18T10:09:05.335Z,20.90
2019-05-18T10:10:05.478Z,20.90
2019-05-18T10:11:07.253Z,21.00
2019-05-18T10:12:05.314Z,21.00
2019-05-18T10:13:05.391Z,21.00
2019-05-18T10:14:07.998Z,21.00
2019-05-18T10:15:07.555Z,21.00
2019-05-18T10:16:05.623Z,21.00
2019-05-18T10:17:04.923Z,21.00
2019-05-18T10:18:07.797Z,21.10
2019-05-18T10:19:07.288Z,21.10
2019-05-18T10:20:07.732Z,21.20
2019-05-18T10:21:04.652Z,21.20
2019-05-18T10:22:04.958Z,21.20
2019-05-18T10:23:12.650Z,21.30
2019-05-18T10:24:07.554Z,21.40
2019-05-18T10:25:08.055Z,21.40
2019-05-18T10:26:07.561Z,21.50
2019-05-18T10:27:10.522Z,21.50
2019-05-18T10:28:07.918Z,21.60
2019-05-18T10:29:04.754Z,21.60
2019-05-18T10:30:04.702Z,21.60
2019-05-18T10:31:04.807Z,21.60
2019-05-18T10:32:05.073Z,21.70
2019-05-18T10:33:07.670Z,21.70
2019-05-18T10:34:05.577Z,21.70
2019-05-18T10:35:05.561Z,21.70
2019-05-18T10:36:11.725Z,21.70
2019-05-18T10:37:04.914Z,21.80
2019-05-18T10:38:04.943Z,21.80
2019-05-18T10:39:07.645Z,21.90
2019-05-18T10:40:04.783Z,21.90
2019-05-18T10:41:04.843Z,21.90
2019-05-18T10:42:07.507Z,22.00
2019-05-18T10:43:05.422Z,22.00
2019-05-18T10:44:05.659Z,22.00
2019-05-18T10:45:05.808Z,22.00
2019-05-18T10:46:05.022Z,22.00
2019-05-18T10:47:05.205Z,22.10
2019-05-18T10:48:08.011Z,22.00
2019-05-18T10:49:07.748Z,22.00
2019-05-18T10:50:10.151Z,22.00
2019-05-18T10:51:05.728Z,22.00
2019-05-18T10:52:04.935Z,22.00
2019-05-18T10:53:05.274Z,22.00
2019-05-18T10:54:05.452Z,22.00
2019-05-18T10:55:08.184Z,21.90
2019-05-18T10:56:05.453Z,21.90
2019-05-18T10:57:04.731Z,22.00
2019-05-18T10:58:05.113Z,22.00
2019-05-18T10:59:05.730Z,22.00
2019-05-18T11:00:05.328Z,22.00
2019-05-18T11:01:05.109Z,22.00
2019-05-18T11:02:07.986Z,22.00
2019-05-18T11:03:05.176Z,21.90
2019-05-18T11:04:07.824Z,22.00
2019-05-18T11:05:05.040Z,22.00
2019-05-18T11:06:07.949Z,22.10
2019-05-18T11:07:05.092Z,22.00
2019-05-18T11:08:05.434Z,22.10
2019-05-18T11:09:05.132Z,22.20
2019-05-18T11:10:05.545Z,22.20
2019-05-18T11:11:09.909Z,22.10
2019-05-18T11:12:07.918Z,22.20
2019-05-18T11:13:10.341Z,22.00
2019-05-18T11:14:08.239Z,21.90
2019-05-18T11:15:05.916Z,21.90
2019-05-18T11:16:08.225Z,21.80
2019-05-18T11:17:05.720Z,21.80
2019-05-18T11:18:05.128Z,21.80
2019-05-18T11:19:05.716Z,21.90
2019-05-18T11:20:05.260Z,21.90
2019-05-18T11:21:04.912Z,21.90
2019-05-18T11:22:05.453Z,22.00
2019-05-18T11:23:05.076Z,22.00
2019-05-18T11:24:05.084Z,22.10
2019-05-18T11:25:05.652Z,22.10
2019-05-18T11:26:05.456Z,22.10
2019-05-18T11:27:05.190Z,22.10
2019-05-18T11:28:09.901Z,22.00
2019-05-18T11:29:05.538Z,22.00
2019-05-18T11:30:05.174Z,22.00
2019-05-18T11:31:07.446Z,22.00
2019-05-18T11:32:04.962Z,22.00
2019-05-18T11:33:05.305Z,22.00
2019-05-18T11:34:04.793Z,22.10
2019-05-18T11:35:05.808Z,22.10
2019-05-18T11:36:05.158Z,22.20
2019-05-18T11:37:08.325Z,22.30
2019-05-18T11:38:05.802Z,22.20
2019-05-18T11:39:10.529Z,22.20
2019-05-18T11:40:05.031Z,22.30
2019-05-18T11:41:10.734Z,22.30
2019-05-18T11:42:05.393Z,22.30
2019-05-18T11:43:05.744Z,22.30
2019-05-18T11:44:05.200Z,22.30
2019-05-18T11:45:10.137Z,22.40
2019-05-18T11:46:05.407Z,22.30
2019-05-18T11:47:08.107Z,22.40
2019-05-18T11:48:07.664Z,22.40
2019-05-18T11:49:08.436Z,22.40
2019-05-18T11:50:07.995Z,22.40
2019-05-18T11:51:05.057Z,22.40
2019-05-18T11:52:05.093Z,22.40
2019-05-18T11:53:05.389Z,22.40
2019-05-18T11:54:05.734Z,22.40
2019-05-18T11:55:05.077Z,22.50
2019-05-18T11:56:05.203Z,22.50
2019-05-18T11:57:05.605Z,22.50
2019-05-18T11:58:05.065Z,22.50
2019-05-18T11:59:15.569Z,22.50
2019-05-18T12:00:07.686Z,22.50
2019-05-18T12:01:05.023Z,22.40
2019-05-18T12:02:05.396Z,22.40
2019-05-18T12:03:05.865Z,22.30
2019-05-18T12:04:05.297Z,22.20
2019-05-18T12:05:08.069Z,22.10
2019-05-18T12:06:05.452Z,22.10
2019-05-18T12:07:05.019Z,22.10
2019-05-18T12:08:07.985Z,21.90
2019-05-18T12:09:07.826Z,21.90
2019-05-18T12:10:05.301Z,21.90
2019-05-18T12:11:05.431Z,22.00
2019-05-18T12:12:05.604Z,21.90
2019-05-18T12:13:07.430Z,22.00
2019-05-18T12:14:08.107Z,22.00
2019-05-18T12:15:05.180Z,22.00
2019-05-18T12:16:05.193Z,22.00
2019-05-18T12:17:05.291Z,22.00
2019-05-18T12:18:07.869Z,22.10
2019-05-18T12:19:04.989Z,22.10
2019-05-18T12:20:07.828Z,22.10
2019-05-18T12:21:04.879Z,22.10
2019-05-18T12:22:07.816Z,22.00
2019-05-18T12:23:08.076Z,22.00
2019-05-18T12:24:14.554Z,22.00
2019-05-18T12:25:05.086Z,22.00
2019-05-18T12:26:07.947Z,22.00
2019-05-18T12:27:05.017Z,22.00
2019-05-18T12:28:07.590Z,21.90
2019-05-18T12:29:05.653Z,21.90
2019-05-18T12:30:04.635Z,21.90
2019-05-18T12:31:05.652Z,21.90
2019-05-18T12:32:10.336Z,22.00
2019-05-18T12:33:05.217Z,22.00
2019-05-18T12:34:05.214Z,22.10
2019-05-18T12:35:05.309Z,22.10
2019-05-18T12:36:05.489Z,22.20
2019-05-18T12:37:08.231Z,22.20
2019-05-18T12:38:05.145Z,22.30
2019-05-18T12:39:07.883Z,22.30
2019-05-18T12:40:04.979Z,22.40
2019-05-18T12:41:05.148Z,22.40
2019-05-18T12:42:07.547Z,22.50
2019-05-18T12:43:07.170Z,22.60
2019-05-18T12:44:05.046Z,22.60
2019-05-18T12:45:05.164Z,22.60
2019-05-18T12:46:05.394Z,22.60
2019-05-18T12:47:05.560Z,22.60
2019-05-18T12:48:04.859Z,22.70
2019-05-18T12:49:05.142Z,22.70
2019-05-18T12:50:05.466Z,22.70
2019-05-18T12:51:04.695Z,22.70
2019-05-18T12:52:05.083Z,22.70
2019-05-18T12:53:05.459Z,22.70
2019-05-18T12:54:09.747Z,22.60
2019-05-18T12:55:04.808Z,22.60
2019-05-18T12:56:05.367Z,22.50
2019-05-18T12:57:05.342Z,22.60
2019-05-18T12:58:05.376Z,22.50
2019-05-18T12:59:08.048Z,22.40
2019-05-18T13:00:05.333Z,22.40
2019-05-18T13:01:05.756Z,22.40